sensor_id;sensor_type;location;lat;lon;timestamp;P1;durP1;ratioP1;P2;durP2;ratioP2
10659;SDS011;5378;53.206;13.316;2023-01-29T00:00:38;8.60;;;3.33;;
10659;SDS011;5378;53.206;13.316;2023-01-29T00:03:25;8.40;;;3.07;;
10659;SDS011;5378;53.206;13.316;2023-01-29T00:06:14;10.20;;;3.70;;
10659;SDS011;5378;53.206;13.316;2023-01-29T00:09:01;4.53;;;3.27;;
10659;SDS011;5378;53.206;13.316;2023-01-29T00:11:48;10.30;;;4.40;;
10659;SDS011;5378;53.206;13.316;2023-01-29T00:14:35;9.63;;;3.83;;
10659;SDS011;5378;53.206;13.316;2023-01-29T00:17:22;9.87;;;3.57;;
10659;SDS011;5378;53.206;13.316;2023-01-29T00:20:09;10.63;;;4.33;;
10659;SDS011;5378;53.206;13.316;2023-01-29T00:22:58;8.20;;;3.13;;
10659;SDS011;5378;53.206;13.316;2023-01-29T00:25:46;6.17;;;3.77;;
10659;SDS011;5378;53.206;13.316;2023-01-29T00:28:33;8.13;;;3.70;;
10659;SDS011;5378;53.206;13.316;2023-01-29T00:31:22;9.30;;;4.10;;
10659;SDS011;5378;53.206;13.316;2023-01-29T00:34:10;25.20;;;4.40;;
10659;SDS011;5378;53.206;13.316;2023-01-29T00:36:57;7.43;;;4.13;;
10659;SDS011;5378;53.206;13.316;2023-01-29T00:39:50;7.00;;;3.77;;
10659;SDS011;5378;53.206;13.316;2023-01-29T00:42:37;5.43;;;3.50;;
10659;SDS011;5378;53.206;13.316;2023-01-29T00:45:42;9.73;;;4.67;;
10659;SDS011;5378;53.206;13.316;2023-01-29T00:48:29;6.53;;;3.93;;
10659;SDS011;5378;53.206;13.316;2023-01-29T00:51:16;10.77;;;4.40;;
10659;SDS011;5378;53.206;13.316;2023-01-29T00:54:03;12.00;;;4.87;;
10659;SDS011;5378;53.206;13.316;2023-01-29T00:56:53;11.83;;;4.00;;
10659;SDS011;5378;53.206;13.316;2023-01-29T00:59:40;11.10;;;5.60;;
10659;SDS011;5378;53.206;13.316;2023-01-29T01:02:27;10.17;;;4.93;;
10659;SDS011;5378;53.206;13.316;2023-01-29T01:05:32;6.23;;;3.63;;
10659;SDS011;5378;53.206;13.316;2023-01-29T01:08:19;8.63;;;4.47;;
10659;SDS011;5378;53.206;13.316;2023-01-29T01:11:24;10.30;;;5.00;;
10659;SDS011;5378;53.206;13.316;2023-01-29T01:14:13;9.93;;;5.13;;
10659;SDS011;5378;53.206;13.316;2023-01-29T01:17:00;10.73;;;5.33;;
10659;SDS011;5378;53.206;13.316;2023-01-29T01:19:47;12.33;;;6.00;;
10659;SDS011;5378;53.206;13.316;2023-01-29T01:22:35;9.80;;;4.90;;
10659;SDS011;5378;53.206;13.316;2023-01-29T01:25:22;12.80;;;6.13;;
10659;SDS011;5378;53.206;13.316;2023-01-29T01:28:11;12.00;;;5.13;;
10659;SDS011;5378;53.206;13.316;2023-01-29T01:31:06;18.10;;;6.30;;
10659;SDS011;5378;53.206;13.316;2023-01-29T01:33:53;12.37;;;6.53;;
10659;SDS011;5378;53.206;13.316;2023-01-29T01:36:41;16.57;;;6.13;;
10659;SDS011;5378;53.206;13.316;2023-01-29T01:39:28;10.40;;;5.20;;
10659;SDS011;5378;53.206;13.316;2023-01-29T01:42:15;13.77;;;6.37;;
10659;SDS011;5378;53.206;13.316;2023-01-29T01:45:03;11.33;;;5.50;;
10659;SDS011;5378;53.206;13.316;2023-01-29T01:47:57;17.60;;;5.73;;
10659;SDS011;5378;53.206;13.316;2023-01-29T01:50:48;11.27;;;6.37;;
10659;SDS011;5378;53.206;13.316;2023-01-29T01:53:39;11.20;;;6.20;;
10659;SDS011;5378;53.206;13.316;2023-01-29T01:56:30;20.43;;;6.77;;
10659;SDS011;5378;53.206;13.316;2023-01-29T01:59:25;18.93;;;6.93;;
10659;SDS011;5378;53.206;13.316;2023-01-29T02:02:12;21.03;;;6.53;;
10659;SDS011;5378;53.206;13.316;2023-01-29T02:05:20;14.03;;;7.30;;
10659;SDS011;5378;53.206;13.316;2023-01-29T02:08:26;17.10;;;6.70;;
10659;SDS011;5378;53.206;13.316;2023-01-29T02:11:35;11.57;;;6.00;;
10659;SDS011;5378;53.206;13.316;2023-01-29T02:14:23;15.90;;;5.83;;
10659;SDS011;5378;53.206;13.316;2023-01-29T02:17:11;14.37;;;6.10;;
10659;SDS011;5378;53.206;13.316;2023-01-29T02:20:02;14.67;;;6.90;;
10659;SDS011;5378;53.206;13.316;2023-01-29T02:23:03;16.87;;;7.07;;
10659;SDS011;5378;53.206;13.316;2023-01-29T02:26:14;17.80;;;7.10;;
10659;SDS011;5378;53.206;13.316;2023-01-29T02:29:17;15.00;;;7.73;;
10659;SDS011;5378;53.206;13.316;2023-01-29T02:32:14;15.00;;;6.93;;
10659;SDS011;5378;53.206;13.316;2023-01-29T02:35:10;17.97;;;6.70;;
10659;SDS011;5378;53.206;13.316;2023-01-29T02:38:15;13.33;;;6.53;;
10659;SDS011;5378;53.206;13.316;2023-01-29T02:41:12;13.77;;;6.67;;
10659;SDS011;5378;53.206;13.316;2023-01-29T02:44:08;20.87;;;7.60;;
10659;SDS011;5378;53.206;13.316;2023-01-29T02:47:01;16.37;;;8.30;;
10659;SDS011;5378;53.206;13.316;2023-01-29T02:49:55;19.07;;;7.83;;
10659;SDS011;5378;53.206;13.316;2023-01-29T02:52:50;17.27;;;7.47;;
10659;SDS011;5378;53.206;13.316;2023-01-29T02:55:43;19.13;;;8.10;;
10659;SDS011;5378;53.206;13.316;2023-01-29T02:58:35;17.60;;;7.40;;
10659;SDS011;5378;53.206;13.316;2023-01-29T03:01:27;14.33;;;6.27;;
10659;SDS011;5378;53.206;13.316;2023-01-29T03:04:21;15.90;;;7.17;;
10659;SDS011;5378;53.206;13.316;2023-01-29T03:07:14;19.40;;;7.10;;
10659;SDS011;5378;53.206;13.316;2023-01-29T03:10:29;12.50;;;6.83;;
10659;SDS011;5378;53.206;13.316;2023-01-29T03:13:22;14.47;;;6.20;;
10659;SDS011;5378;53.206;13.316;2023-01-29T03:16:17;13.27;;;6.77;;
10659;SDS011;5378;53.206;13.316;2023-01-29T03:19:11;20.17;;;7.53;;
10659;SDS011;5378;53.206;13.316;2023-01-29T03:22:03;20.10;;;7.07;;
10659;SDS011;5378;53.206;13.316;2023-01-29T03:24:54;15.03;;;6.10;;
10659;SDS011;5378;53.206;13.316;2023-01-29T03:28:03;14.17;;;5.77;;
10659;SDS011;5378;53.206;13.316;2023-01-29T03:31:10;18.97;;;6.83;;
10659;SDS011;5378;53.206;13.316;2023-01-29T03:34:19;18.67;;;7.50;;
10659;SDS011;5378;53.206;13.316;2023-01-29T03:37:15;15.60;;;7.43;;
10659;SDS011;5378;53.206;13.316;2023-01-29T03:40:07;16.37;;;6.57;;
10659;SDS011;5378;53.206;13.316;2023-01-29T03:42:57;17.67;;;8.10;;
10659;SDS011;5378;53.206;13.316;2023-01-29T03:45:57;15.57;;;7.47;;
10659;SDS011;5378;53.206;13.316;2023-01-29T03:48:50;18.80;;;7.97;;
10659;SDS011;5378;53.206;13.316;2023-01-29T03:51:43;21.90;;;8.10;;
10659;SDS011;5378;53.206;13.316;2023-01-29T03:54:40;16.67;;;8.10;;
10659;SDS011;5378;53.206;13.316;2023-01-29T03:57:35;22.40;;;6.83;;
10659;SDS011;5378;53.206;13.316;2023-01-29T04:00:30;17.60;;;6.67;;
10659;SDS011;5378;53.206;13.316;2023-01-29T04:03:25;16.17;;;7.73;;
10659;SDS011;5378;53.206;13.316;2023-01-29T04:06:20;17.47;;;7.90;;
10659;SDS011;5378;53.206;13.316;2023-01-29T04:09:24;21.87;;;7.00;;
10659;SDS011;5378;53.206;13.316;2023-01-29T04:12:17;19.73;;;8.20;;
10659;SDS011;5378;53.206;13.316;2023-01-29T04:15:10;22.27;;;8.70;;
10659;SDS011;5378;53.206;13.316;2023-01-29T04:18:01;16.77;;;7.57;;
10659;SDS011;5378;53.206;13.316;2023-01-29T04:21:01;20.20;;;8.70;;
10659;SDS011;5378;53.206;13.316;2023-01-29T04:23:51;23.80;;;9.53;;
10659;SDS011;5378;53.206;13.316;2023-01-29T04:26:47;29.87;;;9.10;;
10659;SDS011;5378;53.206;13.316;2023-01-29T04:29:47;26.90;;;10.33;;
10659;SDS011;5378;53.206;13.316;2023-01-29T04:32:48;20.77;;;8.17;;
10659;SDS011;5378;53.206;13.316;2023-01-29T04:35:46;21.13;;;9.47;;
10659;SDS011;5378;53.206;13.316;2023-01-29T04:38:46;23.17;;;9.43;;
10659;SDS011;5378;53.206;13.316;2023-01-29T04:41:44;26.90;;;9.40;;
10659;SDS011;5378;53.206;13.316;2023-01-29T04:44:38;26.47;;;9.97;;
10659;SDS011;5378;53.206;13.316;2023-01-29T04:47:31;24.70;;;8.30;;
10659;SDS011;5378;53.206;13.316;2023-01-29T04:50:27;19.63;;;8.63;;
10659;SDS011;5378;53.206;13.316;2023-01-29T04:53:21;22.77;;;9.07;;
10659;SDS011;5378;53.206;13.316;2023-01-29T04:56:13;24.90;;;9.90;;
10659;SDS011;5378;53.206;13.316;2023-01-29T04:59:08;27.83;;;10.67;;
10659;SDS011;5378;53.206;13.316;2023-01-29T05:01:57;25.77;;;11.20;;
10659;SDS011;5378;53.206;13.316;2023-01-29T05:04:47;26.60;;;10.40;;
10659;SDS011;5378;53.206;13.316;2023-01-29T05:07:36;25.23;;;10.43;;
10659;SDS011;5378;53.206;13.316;2023-01-29T05:10:25;28.73;;;11.00;;
10659;SDS011;5378;53.206;13.316;2023-01-29T05:13:12;30.20;;;10.63;;
10659;SDS011;5378;53.206;13.316;2023-01-29T05:16:01;30.20;;;11.30;;
10659;SDS011;5378;53.206;13.316;2023-01-29T05:18:50;29.00;;;10.47;;
10659;SDS011;5378;53.206;13.316;2023-01-29T05:21:39;30.83;;;10.90;;
10659;SDS011;5378;53.206;13.316;2023-01-29T05:24:27;30.83;;;11.00;;
10659;SDS011;5378;53.206;13.316;2023-01-29T05:27:16;30.40;;;11.27;;
10659;SDS011;5378;53.206;13.316;2023-01-29T05:30:23;26.70;;;11.27;;
10659;SDS011;5378;53.206;13.316;2023-01-29T05:33:12;30.60;;;9.00;;
10659;SDS011;5378;53.206;13.316;2023-01-29T05:36:01;25.97;;;10.50;;
10659;SDS011;5378;53.206;13.316;2023-01-29T05:38:49;30.40;;;10.23;;
10659;SDS011;5378;53.206;13.316;2023-01-29T05:41:37;32.13;;;9.07;;
10659;SDS011;5378;53.206;13.316;2023-01-29T05:44:24;27.03;;;11.90;;
10659;SDS011;5378;53.206;13.316;2023-01-29T05:47:11;26.40;;;10.07;;
10659;SDS011;5378;53.206;13.316;2023-01-29T05:49:59;31.27;;;11.20;;
10659;SDS011;5378;53.206;13.316;2023-01-29T05:52:45;25.50;;;10.90;;
10659;SDS011;5378;53.206;13.316;2023-01-29T05:55:34;28.60;;;10.50;;
10659;SDS011;5378;53.206;13.316;2023-01-29T05:58:21;27.60;;;12.17;;
10659;SDS011;5378;53.206;13.316;2023-01-29T06:01:09;39.53;;;12.07;;
10659;SDS011;5378;53.206;13.316;2023-01-29T06:03:57;25.90;;;11.00;;
10659;SDS011;5378;53.206;13.316;2023-01-29T06:06:44;27.40;;;10.47;;
10659;SDS011;5378;53.206;13.316;2023-01-29T06:09:31;30.20;;;11.60;;
10659;SDS011;5378;53.206;13.316;2023-01-29T06:12:20;28.97;;;9.80;;
10659;SDS011;5378;53.206;13.316;2023-01-29T06:15:07;34.97;;;11.23;;
10659;SDS011;5378;53.206;13.316;2023-01-29T06:17:55;23.90;;;9.47;;
10659;SDS011;5378;53.206;13.316;2023-01-29T06:20:43;26.27;;;9.67;;
10659;SDS011;5378;53.206;13.316;2023-01-29T06:23:30;33.30;;;12.47;;
10659;SDS011;5378;53.206;13.316;2023-01-29T06:26:18;28.40;;;10.33;;
10659;SDS011;5378;53.206;13.316;2023-01-29T06:29:06;27.10;;;11.23;;
10659;SDS011;5378;53.206;13.316;2023-01-29T06:31:53;26.17;;;9.77;;
10659;SDS011;5378;53.206;13.316;2023-01-29T06:34:40;25.60;;;9.57;;
10659;SDS011;5378;53.206;13.316;2023-01-29T06:37:27;25.10;;;10.00;;
10659;SDS011;5378;53.206;13.316;2023-01-29T06:40:15;24.97;;;11.00;;
10659;SDS011;5378;53.206;13.316;2023-01-29T06:43:02;24.83;;;9.63;;
10659;SDS011;5378;53.206;13.316;2023-01-29T06:45:51;27.47;;;11.67;;
10659;SDS011;5378;53.206;13.316;2023-01-29T06:48:39;21.43;;;8.50;;
10659;SDS011;5378;53.206;13.316;2023-01-29T06:51:27;29.77;;;10.03;;
10659;SDS011;5378;53.206;13.316;2023-01-29T06:54:14;23.93;;;10.40;;
10659;SDS011;5378;53.206;13.316;2023-01-29T06:57:01;33.87;;;12.43;;
10659;SDS011;5378;53.206;13.316;2023-01-29T06:59:48;26.30;;;11.10;;
10659;SDS011;5378;53.206;13.316;2023-01-29T07:02:37;26.30;;;10.80;;
10659;SDS011;5378;53.206;13.316;2023-01-29T07:05:24;25.50;;;9.77;;
10659;SDS011;5378;53.206;13.316;2023-01-29T07:08:11;24.23;;;9.87;;
10659;SDS011;5378;53.206;13.316;2023-01-29T07:10:58;34.70;;;11.37;;
10659;SDS011;5378;53.206;13.316;2023-01-29T07:13:46;31.27;;;11.60;;
10659;SDS011;5378;53.206;13.316;2023-01-29T07:16:33;28.13;;;10.93;;
10659;SDS011;5378;53.206;13.316;2023-01-29T07:19:21;29.43;;;10.10;;
10659;SDS011;5378;53.206;13.316;2023-01-29T07:22:09;25.20;;;9.40;;
10659;SDS011;5378;53.206;13.316;2023-01-29T07:24:56;25.30;;;9.87;;
10659;SDS011;5378;53.206;13.316;2023-01-29T07:27:43;26.07;;;10.60;;
10659;SDS011;5378;53.206;13.316;2023-01-29T07:30:30;31.50;;;10.80;;
10659;SDS011;5378;53.206;13.316;2023-01-29T07:33:18;25.47;;;9.57;;
10659;SDS011;5378;53.206;13.316;2023-01-29T07:36:07;36.03;;;12.37;;
10659;SDS011;5378;53.206;13.316;2023-01-29T07:38:55;38.43;;;10.80;;
10659;SDS011;5378;53.206;13.316;2023-01-29T07:41:42;27.03;;;11.13;;
10659;SDS011;5378;53.206;13.316;2023-01-29T07:44:35;26.87;;;10.00;;
10659;SDS011;5378;53.206;13.316;2023-01-29T07:47:22;28.87;;;11.50;;
10659;SDS011;5378;53.206;13.316;2023-01-29T07:50:09;29.87;;;11.50;;
10659;SDS011;5378;53.206;13.316;2023-01-29T07:52:58;27.33;;;10.90;;
10659;SDS011;5378;53.206;13.316;2023-01-29T07:55:46;24.77;;;10.30;;
10659;SDS011;5378;53.206;13.316;2023-01-29T07:58:33;29.60;;;11.43;;
10659;SDS011;5378;53.206;13.316;2023-01-29T08:01:21;30.57;;;12.20;;
10659;SDS011;5378;53.206;13.316;2023-01-29T08:04:09;22.63;;;9.40;;
10659;SDS011;5378;53.206;13.316;2023-01-29T08:06:57;30.97;;;10.10;;
10659;SDS011;5378;53.206;13.316;2023-01-29T08:09:45;31.40;;;12.13;;
10659;SDS011;5378;53.206;13.316;2023-01-29T08:12:32;32.67;;;11.93;;
10659;SDS011;5378;53.206;13.316;2023-01-29T08:15:19;31.00;;;10.70;;
10659;SDS011;5378;53.206;13.316;2023-01-29T08:18:06;33.13;;;11.20;;
10659;SDS011;5378;53.206;13.316;2023-01-29T08:20:57;25.30;;;11.97;;
10659;SDS011;5378;53.206;13.316;2023-01-29T08:23:45;35.63;;;10.93;;
10659;SDS011;5378;53.206;13.316;2023-01-29T08:26:34;34.57;;;11.70;;
10659;SDS011;5378;53.206;13.316;2023-01-29T08:29:21;36.40;;;10.53;;
10659;SDS011;5378;53.206;13.316;2023-01-29T08:32:08;26.90;;;10.23;;
10659;SDS011;5378;53.206;13.316;2023-01-29T08:34:55;25.93;;;10.77;;
10659;SDS011;5378;53.206;13.316;2023-01-29T08:37:43;30.53;;;9.80;;
10659;SDS011;5378;53.206;13.316;2023-01-29T08:40:31;29.93;;;10.30;;
10659;SDS011;5378;53.206;13.316;2023-01-29T08:43:20;29.67;;;10.23;;
10659;SDS011;5378;53.206;13.316;2023-01-29T08:46:07;30.07;;;10.10;;
10659;SDS011;5378;53.206;13.316;2023-01-29T08:48:54;29.60;;;10.50;;
10659;SDS011;5378;53.206;13.316;2023-01-29T08:51:42;26.00;;;9.70;;
10659;SDS011;5378;53.206;13.316;2023-01-29T08:54:29;26.97;;;10.87;;
10659;SDS011;5378;53.206;13.316;2023-01-29T08:57:16;27.17;;;9.37;;
10659;SDS011;5378;53.206;13.316;2023-01-29T09:00:05;20.63;;;9.30;;
10659;SDS011;5378;53.206;13.316;2023-01-29T09:02:53;20.23;;;10.30;;
10659;SDS011;5378;53.206;13.316;2023-01-29T09:05:40;20.43;;;9.00;;
10659;SDS011;5378;53.206;13.316;2023-01-29T09:08:27;21.90;;;9.07;;
10659;SDS011;5378;53.206;13.316;2023-01-29T09:11:15;23.10;;;9.67;;
10659;SDS011;5378;53.206;13.316;2023-01-29T09:14:02;24.57;;;8.63;;
10659;SDS011;5378;53.206;13.316;2023-01-29T09:16:50;20.77;;;8.07;;
10659;SDS011;5378;53.206;13.316;2023-01-29T09:19:38;20.50;;;9.17;;
10659;SDS011;5378;53.206;13.316;2023-01-29T09:22:25;16.53;;;7.60;;
10659;SDS011;5378;53.206;13.316;2023-01-29T09:25:12;17.67;;;7.40;;
10659;SDS011;5378;53.206;13.316;2023-01-29T09:28:00;21.00;;;9.20;;
10659;SDS011;5378;53.206;13.316;2023-01-29T09:30:47;18.97;;;7.43;;
10659;SDS011;5378;53.206;13.316;2023-01-29T09:33:36;20.23;;;7.67;;
10659;SDS011;5378;53.206;13.316;2023-01-29T09:36:23;18.97;;;8.40;;
10659;SDS011;5378;53.206;13.316;2023-01-29T09:39:09;23.53;;;8.80;;
10659;SDS011;5378;53.206;13.316;2023-01-29T09:41:58;17.87;;;8.13;;
10659;SDS011;5378;53.206;13.316;2023-01-29T09:44:54;18.87;;;8.50;;
10659;SDS011;5378;53.206;13.316;2023-01-29T09:47:48;17.97;;;7.77;;
10659;SDS011;5378;53.206;13.316;2023-01-29T09:50:38;17.73;;;8.90;;
10659;SDS011;5378;53.206;13.316;2023-01-29T09:53:30;18.90;;;7.57;;
10659;SDS011;5378;53.206;13.316;2023-01-29T09:56:24;19.27;;;8.50;;
10659;SDS011;5378;53.206;13.316;2023-01-29T09:59:13;20.77;;;8.90;;
10659;SDS011;5378;53.206;13.316;2023-01-29T10:02:06;18.43;;;8.67;;
10659;SDS011;5378;53.206;13.316;2023-01-29T10:05:00;23.20;;;9.27;;
10659;SDS011;5378;53.206;13.316;2023-01-29T10:08:04;16.43;;;6.93;;
10659;SDS011;5378;53.206;13.316;2023-01-29T10:11:17;19.60;;;8.00;;
10659;SDS011;5378;53.206;13.316;2023-01-29T10:14:13;15.07;;;7.10;;
10659;SDS011;5378;53.206;13.316;2023-01-29T10:17:08;16.57;;;6.80;;
10659;SDS011;5378;53.206;13.316;2023-01-29T10:20:13;20.93;;;7.73;;
10659;SDS011;5378;53.206;13.316;2023-01-29T10:23:17;26.37;;;9.43;;
10659;SDS011;5378;53.206;13.316;2023-01-29T10:26:09;19.30;;;8.60;;
10659;SDS011;5378;53.206;13.316;2023-01-29T10:28:58;16.13;;;8.23;;
10659;SDS011;5378;53.206;13.316;2023-01-29T10:31:51;25.70;;;7.80;;
10659;SDS011;5378;53.206;13.316;2023-01-29T10:34:43;20.53;;;8.93;;
10659;SDS011;5378;53.206;13.316;2023-01-29T10:37:35;16.87;;;8.70;;
10659;SDS011;5378;53.206;13.316;2023-01-29T10:40:28;14.40;;;7.13;;
10659;SDS011;5378;53.206;13.316;2023-01-29T10:43:25;12.23;;;7.03;;
10659;SDS011;5378;53.206;13.316;2023-01-29T10:46:21;16.07;;;6.90;;
10659;SDS011;5378;53.206;13.316;2023-01-29T10:49:23;17.50;;;7.90;;
10659;SDS011;5378;53.206;13.316;2023-01-29T10:52:25;17.87;;;8.20;;
10659;SDS011;5378;53.206;13.316;2023-01-29T10:55:23;17.37;;;7.37;;
10659;SDS011;5378;53.206;13.316;2023-01-29T10:58:23;22.83;;;10.47;;
10659;SDS011;5378;53.206;13.316;2023-01-29T11:01:15;24.37;;;8.43;;
10659;SDS011;5378;53.206;13.316;2023-01-29T11:04:04;26.87;;;10.10;;
10659;SDS011;5378;53.206;13.316;2023-01-29T11:06:52;18.47;;;8.13;;
10659;SDS011;5378;53.206;13.316;2023-01-29T11:09:41;14.27;;;7.60;;
10659;SDS011;5378;53.206;13.316;2023-01-29T11:12:33;16.60;;;8.00;;
10659;SDS011;5378;53.206;13.316;2023-01-29T11:15:23;21.20;;;9.07;;
10659;SDS011;5378;53.206;13.316;2023-01-29T11:18:13;22.43;;;7.80;;
10659;SDS011;5378;53.206;13.316;2023-01-29T11:21:02;20.90;;;7.97;;
10659;SDS011;5378;53.206;13.316;2023-01-29T11:24:03;19.53;;;8.17;;
10659;SDS011;5378;53.206;13.316;2023-01-29T11:26:53;20.10;;;9.10;;
10659;SDS011;5378;53.206;13.316;2023-01-29T11:29:44;21.53;;;8.60;;
10659;SDS011;5378;53.206;13.316;2023-01-29T11:32:33;22.13;;;10.07;;
10659;SDS011;5378;53.206;13.316;2023-01-29T11:35:21;24.43;;;10.57;;
10659;SDS011;5378;53.206;13.316;2023-01-29T11:38:17;20.83;;;9.13;;
10659;SDS011;5378;53.206;13.316;2023-01-29T11:41:13;23.23;;;10.57;;
10659;SDS011;5378;53.206;13.316;2023-01-29T11:44:08;24.40;;;10.47;;
10659;SDS011;5378;53.206;13.316;2023-01-29T11:47:14;24.50;;;10.40;;
10659;SDS011;5378;53.206;13.316;2023-01-29T11:50:04;22.30;;;9.00;;
10659;SDS011;5378;53.206;13.316;2023-01-29T11:52:52;20.53;;;8.90;;
10659;SDS011;5378;53.206;13.316;2023-01-29T11:55:39;19.13;;;9.33;;
10659;SDS011;5378;53.206;13.316;2023-01-29T11:58:35;20.27;;;9.03;;
10659;SDS011;5378;53.206;13.316;2023-01-29T12:01:28;21.30;;;8.90;;
10659;SDS011;5378;53.206;13.316;2023-01-29T12:04:20;25.60;;;9.30;;
10659;SDS011;5378;53.206;13.316;2023-01-29T12:07:10;18.70;;;9.77;;
10659;SDS011;5378;53.206;13.316;2023-01-29T12:10:00;27.03;;;10.07;;
10659;SDS011;5378;53.206;13.316;2023-01-29T12:12:47;18.60;;;9.40;;
10659;SDS011;5378;53.206;13.316;2023-01-29T12:15:35;25.37;;;10.03;;
10659;SDS011;5378;53.206;13.316;2023-01-29T12:18:24;21.60;;;8.90;;
10659;SDS011;5378;53.206;13.316;2023-01-29T12:21:19;27.17;;;10.90;;
10659;SDS011;5378;53.206;13.316;2023-01-29T12:24:15;20.60;;;9.10;;
10659;SDS011;5378;53.206;13.316;2023-01-29T12:27:11;13.40;;;6.73;;
10659;SDS011;5378;53.206;13.316;2023-01-29T12:30:03;22.90;;;8.87;;
10659;SDS011;5378;53.206;13.316;2023-01-29T12:32:59;17.47;;;8.47;;
10659;SDS011;5378;53.206;13.316;2023-01-29T12:35:52;18.67;;;9.10;;
10659;SDS011;5378;53.206;13.316;2023-01-29T12:38:43;19.33;;;9.47;;
10659;SDS011;5378;53.206;13.316;2023-01-29T12:41:32;24.70;;;10.20;;
10659;SDS011;5378;53.206;13.316;2023-01-29T12:44:25;23.20;;;9.83;;
10659;SDS011;5378;53.206;13.316;2023-01-29T12:47:19;23.67;;;9.77;;
10659;SDS011;5378;53.206;13.316;2023-01-29T12:50:13;23.33;;;8.97;;
10659;SDS011;5378;53.206;13.316;2023-01-29T12:53:05;22.03;;;10.37;;
10659;SDS011;5378;53.206;13.316;2023-01-29T12:56:03;19.93;;;8.60;;
10659;SDS011;5378;53.206;13.316;2023-01-29T12:58:55;17.80;;;8.80;;
10659;SDS011;5378;53.206;13.316;2023-01-29T13:01:46;24.90;;;9.07;;
10659;SDS011;5378;53.206;13.316;2023-01-29T13:04:38;22.17;;;8.40;;
10659;SDS011;5378;53.206;13.316;2023-01-29T13:07:30;19.17;;;8.93;;
10659;SDS011;5378;53.206;13.316;2023-01-29T13:10:22;22.53;;;8.97;;
10659;SDS011;5378;53.206;13.316;2023-01-29T13:13:15;20.73;;;9.53;;
10659;SDS011;5378;53.206;13.316;2023-01-29T13:16:10;21.00;;;9.60;;
10659;SDS011;5378;53.206;13.316;2023-01-29T13:19:01;22.20;;;9.30;;
10659;SDS011;5378;53.206;13.316;2023-01-29T13:21:51;21.53;;;8.40;;
10659;SDS011;5378;53.206;13.316;2023-01-29T13:24:40;22.17;;;9.53;;
10659;SDS011;5378;53.206;13.316;2023-01-29T13:27:34;22.23;;;9.37;;
10659;SDS011;5378;53.206;13.316;2023-01-29T13:30:25;22.30;;;9.53;;
10659;SDS011;5378;53.206;13.316;2023-01-29T13:33:17;24.23;;;9.90;;
10659;SDS011;5378;53.206;13.316;2023-01-29T13:36:12;24.10;;;9.83;;
10659;SDS011;5378;53.206;13.316;2023-01-29T13:39:02;22.70;;;9.50;;
10659;SDS011;5378;53.206;13.316;2023-01-29T13:41:51;23.53;;;10.13;;
10659;SDS011;5378;53.206;13.316;2023-01-29T13:44:40;22.13;;;8.90;;
10659;SDS011;5378;53.206;13.316;2023-01-29T13:47:29;21.83;;;8.60;;
10659;SDS011;5378;53.206;13.316;2023-01-29T13:50:18;21.77;;;8.63;;
10659;SDS011;5378;53.206;13.316;2023-01-29T13:53:17;20.57;;;9.13;;
10659;SDS011;5378;53.206;13.316;2023-01-29T13:56:27;36.77;;;11.60;;
10659;SDS011;5378;53.206;13.316;2023-01-29T13:59:22;30.17;;;9.97;;
10659;SDS011;5378;53.206;13.316;2023-01-29T14:02:20;22.17;;;10.50;;
10659;SDS011;5378;53.206;13.316;2023-01-29T14:08:39;26.67;;;9.93;;
10659;SDS011;5378;53.206;13.316;2023-01-29T14:11:33;20.97;;;9.70;;
10659;SDS011;5378;53.206;13.316;2023-01-29T14:17:36;28.40;;;10.67;;
10659;SDS011;5378;53.206;13.316;2023-01-29T14:20:25;27.43;;;10.57;;
10659;SDS011;5378;53.206;13.316;2023-01-29T14:23:33;23.63;;;10.20;;
10659;SDS011;5378;53.206;13.316;2023-01-29T14:26:28;27.50;;;9.70;;
10659;SDS011;5378;53.206;13.316;2023-01-29T14:29:18;23.83;;;10.10;;
10659;SDS011;5378;53.206;13.316;2023-01-29T14:32:19;31.73;;;9.60;;
10659;SDS011;5378;53.206;13.316;2023-01-29T14:35:15;24.27;;;10.80;;
10659;SDS011;5378;53.206;13.316;2023-01-29T14:38:04;25.00;;;12.87;;
10659;SDS011;5378;53.206;13.316;2023-01-29T14:41:03;26.80;;;11.30;;
10659;SDS011;5378;53.206;13.316;2023-01-29T14:47:17;26.43;;;9.73;;
10659;SDS011;5378;53.206;13.316;2023-01-29T14:53:24;26.13;;;10.83;;
10659;SDS011;5378;53.206;13.316;2023-01-29T14:56:20;35.57;;;12.47;;
10659;SDS011;5378;53.206;13.316;2023-01-29T14:59:15;30.70;;;11.83;;
10659;SDS011;5378;53.206;13.316;2023-01-29T15:02:10;42.53;;;15.07;;
10659;SDS011;5378;53.206;13.316;2023-01-29T15:05:02;25.17;;;11.07;;
10659;SDS011;5378;53.206;13.316;2023-01-29T15:07:54;34.40;;;14.63;;
10659;SDS011;5378;53.206;13.316;2023-01-29T15:10:44;29.70;;;12.50;;
10659;SDS011;5378;53.206;13.316;2023-01-29T15:14:00;29.00;;;13.00;;
10659;SDS011;5378;53.206;13.316;2023-01-29T15:16:55;27.07;;;11.50;;
10659;SDS011;5378;53.206;13.316;2023-01-29T15:19:50;31.27;;;11.53;;
10659;SDS011;5378;53.206;13.316;2023-01-29T15:22:41;24.03;;;11.27;;
10659;SDS011;5378;53.206;13.316;2023-01-29T15:25:29;26.33;;;11.93;;
10659;SDS011;5378;53.206;13.316;2023-01-29T15:28:21;24.60;;;10.90;;
10659;SDS011;5378;53.206;13.316;2023-01-29T15:31:12;35.00;;;13.30;;
10659;SDS011;5378;53.206;13.316;2023-01-29T15:34:05;28.33;;;11.00;;
10659;SDS011;5378;53.206;13.316;2023-01-29T15:36:52;34.17;;;12.57;;
10659;SDS011;5378;53.206;13.316;2023-01-29T15:39:41;34.83;;;11.60;;
10659;SDS011;5378;53.206;13.316;2023-01-29T15:42:40;30.50;;;11.80;;
10659;SDS011;5378;53.206;13.316;2023-01-29T15:45:31;25.17;;;10.30;;
10659;SDS011;5378;53.206;13.316;2023-01-29T15:48:20;26.13;;;11.57;;
10659;SDS011;5378;53.206;13.316;2023-01-29T15:51:16;33.30;;;12.17;;
10659;SDS011;5378;53.206;13.316;2023-01-29T15:54:08;28.23;;;12.90;;
10659;SDS011;5378;53.206;13.316;2023-01-29T15:57:00;27.50;;;12.53;;
10659;SDS011;5378;53.206;13.316;2023-01-29T15:59:48;32.93;;;13.33;;
10659;SDS011;5378;53.206;13.316;2023-01-29T16:02:39;40.97;;;15.20;;
10659;SDS011;5378;53.206;13.316;2023-01-29T16:05:28;29.53;;;13.10;;
10659;SDS011;5378;53.206;13.316;2023-01-29T16:08:17;30.40;;;13.40;;
10659;SDS011;5378;53.206;13.316;2023-01-29T16:11:06;27.53;;;13.37;;
10659;SDS011;5378;53.206;13.316;2023-01-29T16:13:54;31.93;;;12.67;;
10659;SDS011;5378;53.206;13.316;2023-01-29T16:16:42;34.43;;;13.60;;
10659;SDS011;5378;53.206;13.316;2023-01-29T16:19:30;41.40;;;14.13;;
10659;SDS011;5378;53.206;13.316;2023-01-29T16:22:19;34.73;;;14.37;;
10659;SDS011;5378;53.206;13.316;2023-01-29T16:25:07;36.93;;;13.53;;
10659;SDS011;5378;53.206;13.316;2023-01-29T16:28:01;42.33;;;14.60;;
10659;SDS011;5378;53.206;13.316;2023-01-29T16:30:53;34.90;;;14.47;;
10659;SDS011;5378;53.206;13.316;2023-01-29T16:33:44;33.40;;;12.60;;
10659;SDS011;5378;53.206;13.316;2023-01-29T16:36:31;32.33;;;13.17;;
10659;SDS011;5378;53.206;13.316;2023-01-29T16:39:20;31.20;;;11.57;;
10659;SDS011;5378;53.206;13.316;2023-01-29T16:42:23;35.43;;;14.60;;
10659;SDS011;5378;53.206;13.316;2023-01-29T16:45:24;28.30;;;11.67;;
10659;SDS011;5378;53.206;13.316;2023-01-29T16:48:23;34.67;;;12.80;;
10659;SDS011;5378;53.206;13.316;2023-01-29T16:51:13;42.10;;;14.13;;
10659;SDS011;5378;53.206;13.316;2023-01-29T16:54:06;31.83;;;12.00;;
10659;SDS011;5378;53.206;13.316;2023-01-29T16:56:58;36.00;;;13.93;;
10659;SDS011;5378;53.206;13.316;2023-01-29T16:59:46;29.30;;;12.63;;
10659;SDS011;5378;53.206;13.316;2023-01-29T17:02:35;36.33;;;13.87;;
10659;SDS011;5378;53.206;13.316;2023-01-29T17:05:25;33.63;;;12.90;;
10659;SDS011;5378;53.206;13.316;2023-01-29T17:08:14;38.13;;;13.90;;